sensor_id;sensor_type;location;lat;lon;timestamp;P1;durP1;ratioP1;P2;durP2;ratioP2
6467;SDS011;3267;48.794;9.928;2024-03-23T05:16:21;1.38;;;1.30;;
6467;SDS011;3267;48.794;9.928;2024-03-23T05:18:47;0.93;;;0.75;;
6467;SDS011;3267;48.794;9.928;2024-03-23T05:21:13;2.75;;;1.60;;
6467;SDS011;3267;48.794;9.928;2024-03-23T05:23:39;1.83;;;1.17;;
6467;SDS011;3267;48.794;9.928;2024-03-23T05:26:05;2.25;;;1.50;;
6467;SDS011;3267;48.794;9.928;2024-03-23T05:28:31;4.20;;;1.88;;
6467;SDS011;3267;48.794;9.928;2024-03-23T05:30:57;1.20;;;1.10;;
6467;SDS011;3267;48.794;9.928;2024-03-23T05:33:23;2.33;;;2.13;;
6467;SDS011;3267;48.794;9.928;2024-03-23T05:36:01;4.63;;;2.38;;
6467;SDS011;3267;48.794;9.928;2024-03-23T05:38:28;3.78;;;3.17;;
6467;SDS011;3267;48.794;9.928;2024-03-23T05:40:58;4.85;;;3.55;;
6467;SDS011;3267;48.794;9.928;2024-03-23T05:43:25;7.47;;;4.85;;
6467;SDS011;3267;48.794;9.928;2024-03-23T05:48:20;7.90;;;5.15;;
6467;SDS011;3267;48.794;9.928;2024-03-23T05:50:46;6.30;;;4.40;;
6467;SDS011;3267;48.794;9.928;2024-03-23T05:53:12;6.78;;;5.30;;
6467;SDS011;3267;48.794;9.928;2024-03-23T05:55:38;4.72;;;4.22;;
6467;SDS011;3267;48.794;9.928;2024-03-23T05:58:05;13.43;;;5.40;;
6467;SDS011;3267;48.794;9.928;2024-03-23T06:00:31;6.35;;;4.90;;
6467;SDS011;3267;48.794;9.928;2024-03-23T06:02:57;5.15;;;4.60;;
6467;SDS011;3267;48.794;9.928;2024-03-23T06:05:23;8.65;;;5.50;;
6467;SDS011;3267;48.794;9.928;2024-03-23T06:07:49;5.45;;;4.43;;
6467;SDS011;3267;48.794;9.928;2024-03-23T06:10:15;5.85;;;5.13;;
6467;SDS011;3267;48.794;9.928;2024-03-23T06:12:41;8.25;;;5.13;;
6467;SDS011;3267;48.794;9.928;2024-03-23T06:15:07;6.72;;;5.00;;
6467;SDS011;3267;48.794;9.928;2024-03-23T06:17:38;5.53;;;4.82;;
6467;SDS011;3267;48.794;9.928;2024-03-23T06:20:05;8.25;;;5.20;;
6467;SDS011;3267;48.794;9.928;2024-03-23T06:22:35;5.65;;;4.80;;
6467;SDS011;3267;48.794;9.928;2024-03-23T06:25:01;6.57;;;4.45;;
6467;SDS011;3267;48.794;9.928;2024-03-23T06:27:27;2.80;;;2.55;;
6467;SDS011;3267;48.794;9.928;2024-03-23T06:29:54;3.78;;;3.30;;
6467;SDS011;3267;48.794;9.928;2024-03-23T06:32:20;2.55;;;2.35;;
6467;SDS011;3267;48.794;9.928;2024-03-23T06:34:46;4.20;;;3.80;;
6467;SDS011;3267;48.794;9.928;2024-03-23T06:37:12;5.10;;;3.20;;
6467;SDS011;3267;48.794;9.928;2024-03-23T06:39:38;1.95;;;1.65;;
6467;SDS011;3267;48.794;9.928;2024-03-23T06:42:04;2.15;;;2.00;;
6467;SDS011;3267;48.794;9.928;2024-03-23T06:44:31;3.05;;;2.63;;
6467;SDS011;3267;48.794;9.928;2024-03-23T06:46:57;2.28;;;2.08;;
6467;SDS011;3267;48.794;9.928;2024-03-23T06:49:23;3.45;;;2.75;;
6467;SDS011;3267;48.794;9.928;2024-03-23T06:51:49;3.00;;;2.65;;
6467;SDS011;3267;48.794;9.928;2024-03-23T06:54:19;3.40;;;2.30;;
6467;SDS011;3267;48.794;9.928;2024-03-23T06:56:45;2.63;;;2.08;;
6467;SDS011;3267;48.794;9.928;2024-03-23T06:59:11;3.63;;;2.88;;
6467;SDS011;3267;48.794;9.928;2024-03-23T07:01:37;3.42;;;2.15;;
6467;SDS011;3267;48.794;9.928;2024-03-23T07:04:03;4.20;;;2.33;;
6467;SDS011;3267;48.794;9.928;2024-03-23T07:06:30;1.23;;;1.17;;
6467;SDS011;3267;48.794;9.928;2024-03-23T07:08:56;2.60;;;2.15;;
6467;SDS011;3267;48.794;9.928;2024-03-23T07:11:22;1.17;;;1.17;;
6467;SDS011;3267;48.794;9.928;2024-03-23T07:13:52;2.38;;;2.00;;
6467;SDS011;3267;48.794;9.928;2024-03-23T07:16:21;2.33;;;1.60;;
6467;SDS011;3267;48.794;9.928;2024-03-23T07:18:47;1.75;;;1.60;;
6467;SDS011;3267;48.794;9.928;2024-03-23T07:21:14;2.28;;;1.77;;
6467;SDS011;3267;48.794;9.928;2024-03-23T07:23:41;0.95;;;0.95;;
6467;SDS011;3267;48.794;9.928;2024-03-23T07:26:10;1.65;;;1.40;;
6467;SDS011;3267;48.794;9.928;2024-03-23T07:28:36;1.63;;;1.08;;
6467;SDS011;3267;48.794;9.928;2024-03-23T07:31:06;1.60;;;1.50;;
6467;SDS011;3267;48.794;9.928;2024-03-23T07:33:34;1.42;;;1.33;;
6467;SDS011;3267;48.794;9.928;2024-03-23T07:36:00;0.95;;;0.95;;
6467;SDS011;3267;48.794;9.928;2024-03-23T07:38:27;1.17;;;1.00;;
6467;SDS011;3267;48.794;9.928;2024-03-23T07:41:03;1.10;;;0.90;;
6467;SDS011;3267;48.794;9.928;2024-03-23T07:43:29;2.70;;;1.02;;
6467;SDS011;3267;48.794;9.928;2024-03-23T07:45:55;1.00;;;1.00;;
6467;SDS011;3267;48.794;9.928;2024-03-23T07:48:24;1.38;;;0.70;;
6467;SDS011;3267;48.794;9.928;2024-03-23T07:51:07;0.50;;;0.50;;
6467;SDS011;3267;48.794;9.928;2024-03-23T07:53:35;0.90;;;0.90;;
6467;SDS011;3267;48.794;9.928;2024-03-23T07:56:07;0.65;;;0.65;;
6467;SDS011;3267;48.794;9.928;2024-03-23T07:58:33;0.70;;;0.70;;
6467;SDS011;3267;48.794;9.928;2024-03-23T08:01:12;0.60;;;0.60;;
6467;SDS011;3267;48.794;9.928;2024-03-23T08:03:40;0.40;;;0.40;;
6467;SDS011;3267;48.794;9.928;2024-03-23T08:08:39;0.65;;;0.65;;
6467;SDS011;3267;48.794;9.928;2024-03-23T08:11:09;0.70;;;0.70;;
6467;SDS011;3267;48.794;9.928;2024-03-23T08:13:36;0.60;;;0.60;;
6467;SDS011;3267;48.794;9.928;2024-03-23T08:16:02;0.50;;;0.50;;
6467;SDS011;3267;48.794;9.928;2024-03-23T08:18:29;0.40;;;0.40;;
6467;SDS011;3267;48.794;9.928;2024-03-23T08:20:59;0.68;;;0.68;;
6467;SDS011;3267;48.794;9.928;2024-03-23T08:23:29;0.47;;;0.47;;
6467;SDS011;3267;48.794;9.928;2024-03-23T08:25:59;1.25;;;0.60;;
6467;SDS011;3267;48.794;9.928;2024-03-23T08:28:25;0.70;;;0.70;;
6467;SDS011;3267;48.794;9.928;2024-03-23T08:30:52;0.63;;;0.60;;
6467;SDS011;3267;48.794;9.928;2024-03-23T08:33:18;0.50;;;0.50;;
6467;SDS011;3267;48.794;9.928;2024-03-23T08:35:54;0.43;;;0.43;;
6467;SDS011;3267;48.794;9.928;2024-03-23T08:38:21;0.80;;;0.80;;
6467;SDS011;3267;48.794;9.928;2024-03-23T08:40:47;0.60;;;0.60;;
6467;SDS011;3267;48.794;9.928;2024-03-23T08:43:13;0.80;;;0.80;;
6467;SDS011;3267;48.794;9.928;2024-03-23T08:45:39;0.55;;;0.55;;
6467;SDS011;3267;48.794;9.928;2024-03-23T08:48:05;0.55;;;0.55;;
6467;SDS011;3267;48.794;9.928;2024-03-23T08:50:31;0.80;;;0.80;;
6467;SDS011;3267;48.794;9.928;2024-03-23T08:52:57;0.55;;;0.55;;
6467;SDS011;3267;48.794;9.928;2024-03-23T08:55:23;0.47;;;0.47;;
6467;SDS011;3267;48.794;9.928;2024-03-23T08:57:49;0.60;;;0.60;;
6467;SDS011;3267;48.794;9.928;2024-03-23T09:00:15;0.60;;;0.60;;
6467;SDS011;3267;48.794;9.928;2024-03-23T09:02:42;0.43;;;0.43;;
6467;SDS011;3267;48.794;9.928;2024-03-23T09:05:08;0.50;;;0.50;;
6467;SDS011;3267;48.794;9.928;2024-03-23T09:07:34;1.10;;;0.70;;
6467;SDS011;3267;48.794;9.928;2024-03-23T09:10:00;0.60;;;0.60;;
6467;SDS011;3267;48.794;9.928;2024-03-23T09:12:26;0.50;;;0.50;;
6467;SDS011;3267;48.794;9.928;2024-03-23T09:14:52;0.40;;;0.40;;
6467;SDS011;3267;48.794;9.928;2024-03-23T09:17:19;0.50;;;0.50;;
6467;SDS011;3267;48.794;9.928;2024-03-23T09:19:45;0.57;;;0.57;;
6467;SDS011;3267;48.794;9.928;2024-03-23T09:22:11;0.50;;;0.50;;
6467;SDS011;3267;48.794;9.928;2024-03-23T09:24:38;0.60;;;0.60;;
6467;SDS011;3267;48.794;9.928;2024-03-23T09:27:04;2.47;;;1.20;;
6467;SDS011;3267;48.794;9.928;2024-03-23T09:29:30;0.50;;;0.50;;
6467;SDS011;3267;48.794;9.928;2024-03-23T09:31:56;0.73;;;0.60;;
6467;SDS011;3267;48.794;9.928;2024-03-23T09:34:22;0.68;;;0.68;;
6467;SDS011;3267;48.794;9.928;2024-03-23T09:36:52;1.63;;;1.15;;
6467;SDS011;3267;48.794;9.928;2024-03-23T09:39:18;0.70;;;0.70;;
6467;SDS011;3267;48.794;9.928;2024-03-23T09:41:45;0.82;;;0.82;;
6467;SDS011;3267;48.794;9.928;2024-03-23T09:44:11;0.60;;;0.60;;
6467;SDS011;3267;48.794;9.928;2024-03-23T09:46:37;1.00;;;0.70;;
6467;SDS011;3267;48.794;9.928;2024-03-23T09:49:05;0.65;;;0.65;;
6467;SDS011;3267;48.794;9.928;2024-03-23T09:51:31;1.75;;;0.60;;
6467;SDS011;3267;48.794;9.928;2024-03-23T09:53:57;0.88;;;0.88;;
6467;SDS011;3267;48.794;9.928;2024-03-23T09:56:23;1.45;;;1.08;;
6467;SDS011;3267;48.794;9.928;2024-03-23T09:58:59;0.90;;;0.85;;
6467;SDS011;3267;48.794;9.928;2024-03-23T10:01:28;2.45;;;1.08;;
6467;SDS011;3267;48.794;9.928;2024-03-23T10:03:55;0.75;;;0.75;;
6467;SDS011;3267;48.794;9.928;2024-03-23T10:06:21;3.70;;;1.30;;
6467;SDS011;3267;48.794;9.928;2024-03-23T10:08:50;1.77;;;1.05;;
6467;SDS011;3267;48.794;9.928;2024-03-23T10:11:16;1.92;;;1.30;;
6467;SDS011;3267;48.794;9.928;2024-03-23T10:13:43;2.78;;;1.20;;
6467;SDS011;3267;48.794;9.928;2024-03-23T10:16:09;2.80;;;1.50;;
6467;SDS011;3267;48.794;9.928;2024-03-23T10:18:39;4.70;;;1.63;;
6467;SDS011;3267;48.794;9.928;2024-03-23T10:23:34;2.35;;;1.30;;
6467;SDS011;3267;48.794;9.928;2024-03-23T10:26:20;2.33;;;1.30;;
6467;SDS011;3267;48.794;9.928;2024-03-23T10:28:57;3.30;;;1.67;;
6467;SDS011;3267;48.794;9.928;2024-03-23T10:31:28;1.80;;;1.40;;
6467;SDS011;3267;48.794;9.928;2024-03-23T10:33:54;4.32;;;1.70;;
6467;SDS011;3267;48.794;9.928;2024-03-23T10:36:21;2.33;;;1.20;;
6467;SDS011;3267;48.794;9.928;2024-03-23T10:38:49;1.92;;;1.30;;
6467;SDS011;3267;48.794;9.928;2024-03-23T10:41:15;2.75;;;1.48;;
6467;SDS011;3267;48.794;9.928;2024-03-23T10:43:42;2.17;;;1.40;;
6467;SDS011;3267;48.794;9.928;2024-03-23T10:46:09;2.33;;;1.40;;
6467;SDS011;3267;48.794;9.928;2024-03-23T10:48:35;2.17;;;1.33;;
6467;SDS011;3267;48.794;9.928;2024-03-23T10:51:01;4.03;;;1.55;;
6467;SDS011;3267;48.794;9.928;2024-03-23T10:53:27;4.88;;;1.80;;
6467;SDS011;3267;48.794;9.928;2024-03-23T10:55:54;3.92;;;1.75;;
6467;SDS011;3267;48.794;9.928;2024-03-23T10:58:23;2.67;;;1.60;;
6467;SDS011;3267;48.794;9.928;2024-03-23T11:00:55;1.85;;;0.77;;
6467;SDS011;3267;48.794;9.928;2024-03-23T11:06:01;2.92;;;1.63;;
6467;SDS011;3267;48.794;9.928;2024-03-23T11:13:48;2.58;;;1.40;;
6467;SDS011;3267;48.794;9.928;2024-03-23T11:16:24;3.95;;;1.55;;
6467;SDS011;3267;48.794;9.928;2024-03-23T11:19:32;7.90;;;2.03;;
6467;SDS011;3267;48.794;9.928;2024-03-23T11:21:59;3.10;;;1.60;;
6467;SDS011;3267;48.794;9.928;2024-03-23T11:24:25;3.65;;;1.70;;
6467;SDS011;3267;48.794;9.928;2024-03-23T11:26:51;3.97;;;1.73;;
6467;SDS011;3267;48.794;9.928;2024-03-23T11:29:17;4.07;;;1.70;;
6467;SDS011;3267;48.794;9.928;2024-03-23T11:31:48;2.50;;;1.70;;
6467;SDS011;3267;48.794;9.928;2024-03-23T11:34:15;4.95;;;1.75;;
6467;SDS011;3267;48.794;9.928;2024-03-23T11:36:42;3.00;;;1.42;;
6467;SDS011;3267;48.794;9.928;2024-03-23T11:39:18;3.20;;;1.90;;
6467;SDS011;3267;48.794;9.928;2024-03-23T11:41:55;3.38;;;1.83;;
6467;SDS011;3267;48.794;9.928;2024-03-23T11:44:22;1.60;;;1.42;;
6467;SDS011;3267;48.794;9.928;2024-03-23T11:46:50;4.05;;;1.73;;
6467;SDS011;3267;48.794;9.928;2024-03-23T11:49:29;5.07;;;1.90;;
6467;SDS011;3267;48.794;9.928;2024-03-23T11:51:55;3.00;;;1.60;;
6467;SDS011;3267;48.794;9.928;2024-03-23T11:54:24;2.97;;;1.33;;
6467;SDS011;3267;48.794;9.928;2024-03-23T11:56:57;3.95;;;1.35;;
6467;SDS011;3267;48.794;9.928;2024-03-23T11:59:33;1.67;;;1.38;;
6467;SDS011;3267;48.794;9.928;2024-03-23T12:02:00;3.22;;;1.50;;
6467;SDS011;3267;48.794;9.928;2024-03-23T12:04:26;2.88;;;1.88;;
6467;SDS011;3267;48.794;9.928;2024-03-23T12:07:08;2.33;;;1.50;;
6467;SDS011;3267;48.794;9.928;2024-03-23T12:09:38;1.70;;;1.60;;
6467;SDS011;3267;48.794;9.928;2024-03-23T12:14:34;1.38;;;1.20;;
6467;SDS011;3267;48.794;9.928;2024-03-23T12:17:13;2.17;;;1.38;;
6467;SDS011;3267;48.794;9.928;2024-03-23T12:19:39;1.00;;;0.93;;
6467;SDS011;3267;48.794;9.928;2024-03-23T12:22:06;2.33;;;1.17;;
6467;SDS011;3267;48.794;9.928;2024-03-23T12:24:33;2.55;;;1.60;;
6467;SDS011;3267;48.794;9.928;2024-03-23T12:27:03;1.73;;;1.10;;
6467;SDS011;3267;48.794;9.928;2024-03-23T12:29:32;1.92;;;1.35;;
6467;SDS011;3267;48.794;9.928;2024-03-23T12:31:59;2.25;;;1.35;;
6467;SDS011;3267;48.794;9.928;2024-03-23T12:34:26;1.10;;;1.00;;
6467;SDS011;3267;48.794;9.928;2024-03-23T12:36:51;1.33;;;1.23;;
6467;SDS011;3267;48.794;9.928;2024-03-23T12:39:17;1.40;;;1.30;;
6467;SDS011;3267;48.794;9.928;2024-03-23T12:41:43;3.08;;;1.75;;
6467;SDS011;3267;48.794;9.928;2024-03-23T12:44:09;1.65;;;1.20;;
6467;SDS011;3267;48.794;9.928;2024-03-23T12:46:37;2.30;;;1.42;;
6467;SDS011;3267;48.794;9.928;2024-03-23T12:49:03;2.47;;;1.80;;
6467;SDS011;3267;48.794;9.928;2024-03-23T12:51:29;3.25;;;1.50;;
6467;SDS011;3267;48.794;9.928;2024-03-23T12:53:58;3.75;;;1.33;;
6467;SDS011;3267;48.794;9.928;2024-03-23T12:56:25;2.08;;;1.50;;
6467;SDS011;3267;48.794;9.928;2024-03-23T12:58:51;1.23;;;1.10;;
6467;SDS011;3267;48.794;9.928;2024-03-23T13:01:18;2.05;;;1.25;;
6467;SDS011;3267;48.794;9.928;2024-03-23T13:03:46;2.40;;;1.45;;
6467;SDS011;3267;48.794;9.928;2024-03-23T13:06:14;3.13;;;1.50;;
6467;SDS011;3267;48.794;9.928;2024-03-23T13:08:40;1.48;;;1.23;;
6467;SDS011;3267;48.794;9.928;2024-03-23T13:11:06;2.92;;;1.40;;
6467;SDS011;3267;48.794;9.928;2024-03-23T13:13:38;2.25;;;1.50;;
6467;SDS011;3267;48.794;9.928;2024-03-23T13:16:04;2.22;;;1.45;;
6467;SDS011;3267;48.794;9.928;2024-03-23T13:18:30;2.92;;;1.40;;
6467;SDS011;3267;48.794;9.928;2024-03-23T13:20:56;1.35;;;1.25;;
6467;SDS011;3267;48.794;9.928;2024-03-23T13:23:22;0.95;;;0.80;;
6467;SDS011;3267;48.794;9.928;2024-03-23T13:25:51;2.33;;;1.80;;
6467;SDS011;3267;48.794;9.928;2024-03-23T13:28:21;1.52;;;1.40;;
6467;SDS011;3267;48.794;9.928;2024-03-23T13:30:54;4.50;;;1.30;;
6467;SDS011;3267;48.794;9.928;2024-03-23T13:33:21;2.33;;;1.25;;
6467;SDS011;3267;48.794;9.928;2024-03-23T13:35:53;1.90;;;1.25;;
6467;SDS011;3267;48.794;9.928;2024-03-23T13:38:22;1.67;;;0.73;;
6467;SDS011;3267;48.794;9.928;2024-03-23T13:43:25;2.92;;;1.17;;
6467;SDS011;3267;48.794;9.928;2024-03-23T13:45:55;2.95;;;1.30;;
6467;SDS011;3267;48.794;9.928;2024-03-23T13:48:23;4.07;;;1.52;;
6467;SDS011;3267;48.794;9.928;2024-03-23T13:50:59;1.98;;;1.40;;
6467;SDS011;3267;48.794;9.928;2024-03-23T13:53:25;2.78;;;1.30;;
6467;SDS011;3267;48.794;9.928;2024-03-23T13:55:51;3.38;;;1.30;;
6467;SDS011;3267;48.794;9.928;2024-03-23T13:58:16;3.78;;;1.65;;
6467;SDS011;3267;48.794;9.928;2024-03-23T14:00:42;3.75;;;1.60;;
6467;SDS011;3267;48.794;9.928;2024-03-23T14:03:08;1.73;;;1.15;;
6467;SDS011;3267;48.794;9.928;2024-03-23T14:05:35;4.00;;;1.40;;
6467;SDS011;3267;48.794;9.928;2024-03-23T14:08:00;1.67;;;1.40;;
6467;SDS011;3267;48.794;9.928;2024-03-23T14:10:26;4.85;;;1.70;;
6467;SDS011;3267;48.794;9.928;2024-03-23T14:12:54;3.40;;;1.25;;
6467;SDS011;3267;48.794;9.928;2024-03-23T14:15:20;5.05;;;1.83;;
6467;SDS011;3267;48.794;9.928;2024-03-23T14:17:45;4.30;;;1.55;;
6467;SDS011;3267;48.794;9.928;2024-03-23T14:20:11;6.15;;;2.03;;
6467;SDS011;3267;48.794;9.928;2024-03-23T14:22:38;5.45;;;1.90;;
6467;SDS011;3267;48.794;9.928;2024-03-23T14:25:06;4.45;;;1.63;;
6467;SDS011;3267;48.794;9.928;2024-03-23T14:27:32;2.35;;;1.50;;
6467;SDS011;3267;48.794;9.928;2024-03-23T14:29:57;4.65;;;1.98;;
6467;SDS011;3267;48.794;9.928;2024-03-23T14:32:23;3.92;;;1.98;;
6467;SDS011;3267;48.794;9.928;2024-03-23T14:34:49;1.60;;;1.13;;
6467;SDS011;3267;48.794;9.928;2024-03-23T14:37:17;2.40;;;1.00;;
6467;SDS011;3267;48.794;9.928;2024-03-23T14:39:42;1.50;;;0.90;;
6467;SDS011;3267;48.794;9.928;2024-03-23T14:42:10;3.00;;;1.10;;
6467;SDS011;3267;48.794;9.928;2024-03-23T14:44:36;1.70;;;1.27;;
6467;SDS011;3267;48.794;9.928;2024-03-23T14:47:01;0.90;;;0.90;;
6467;SDS011;3267;48.794;9.928;2024-03-23T14:49:27;3.45;;;1.08;;
6467;SDS011;3267;48.794;9.928;2024-03-23T14:51:53;0.95;;;0.88;;
6467;SDS011;3267;48.794;9.928;2024-03-23T14:54:18;2.90;;;0.75;;
6467;SDS011;3267;48.794;9.928;2024-03-23T14:56:44;2.90;;;1.10;;
6467;SDS011;3267;48.794;9.928;2024-03-23T14:59:10;4.50;;;1.33;;
6467;SDS011;3267;48.794;9.928;2024-03-23T15:01:35;1.67;;;0.77;;
6467;SDS011;3267;48.794;9.928;2024-03-23T15:04:01;1.08;;;0.90;;
6467;SDS011;3267;48.794;9.928;2024-03-23T15:06:29;1.30;;;0.73;;
6467;SDS011;3267;48.794;9.928;2024-03-23T15:08:54;1.42;;;0.73;;
6467;SDS011;3267;48.794;9.928;2024-03-23T15:11:20;1.92;;;0.88;;
6467;SDS011;3267;48.794;9.928;2024-03-23T15:13:45;2.15;;;0.88;;
6467;SDS011;3267;48.794;9.928;2024-03-23T15:16:16;3.42;;;1.00;;
6467;SDS011;3267;48.794;9.928;2024-03-23T15:18:45;2.95;;;1.40;;
6467;SDS011;3267;48.794;9.928;2024-03-23T15:21:11;0.60;;;0.60;;
6467;SDS011;3267;48.794;9.928;2024-03-23T15:23:37;1.25;;;0.70;;
6467;SDS011;3267;48.794;9.928;2024-03-23T15:26:04;0.65;;;0.50;;
6467;SDS011;3267;48.794;9.928;2024-03-23T15:28:33;1.20;;;0.80;;
6467;SDS011;3267;48.794;9.928;2024-03-23T15:31:29;1.40;;;0.75;;
6467;SDS011;3267;48.794;9.928;2024-03-23T15:33:57;0.60;;;0.60;;
6467;SDS011;3267;48.794;9.928;2024-03-23T15:36:23;2.25;;;0.73;;
6467;SDS011;3267;48.794;9.928;2024-03-23T15:38:50;0.60;;;0.60;;
6467;SDS011;3267;48.794;9.928;2024-03-23T15:41:16;0.85;;;0.63;;
6467;SDS011;3267;48.794;9.928;2024-03-23T15:43:42;0.93;;;0.65;;
6467;SDS011;3267;48.794;9.928;2024-03-23T15:46:07;1.27;;;0.80;;
6467;SDS011;3267;48.794;9.928;2024-03-23T15:48:35;2.05;;;0.93;;
6467;SDS011;3267;48.794;9.928;2024-03-23T15:51:02;0.85;;;0.80;;
6467;SDS011;3267;48.794;9.928;2024-03-23T15:53:31;3.30;;;0.93;;
6467;SDS011;3267;48.794;9.928;2024-03-23T15:55:57;1.23;;;0.80;;
6467;SDS011;3267;48.794;9.928;2024-03-23T15:58:28;2.05;;;1.10;;
6467;SDS011;3267;48.794;9.928;2024-03-23T16:00:58;1.60;;;1.00;;
6467;SDS011;3267;48.794;9.928;2024-03-23T16:03:25;1.30;;;0.90;;
6467;SDS011;3267;48.794;9.928;2024-03-23T16:05:56;3.30;;;0.80;;
6467;SDS011;3267;48.794;9.928;2024-03-23T16:08:23;2.08;;;0.98;;
6467;SDS011;3267;48.794;9.928;2024-03-23T16:10:49;1.98;;;0.82;;
6467;SDS011;3267;48.794;9.928;2024-03-23T16:13:15;0.95;;;0.70;;
6467;SDS011;3267;48.794;9.928;2024-03-23T16:15:41;1.65;;;1.02;;
6467;SDS011;3267;48.794;9.928;2024-03-23T16:18:07;2.55;;;1.05;;
6467;SDS011;3267;48.794;9.928;2024-03-23T16:20:34;1.80;;;0.95;;
6467;SDS011;3267;48.794;9.928;2024-03-23T16:23:00;1.27;;;0.90;;
6467;SDS011;3267;48.794;9.928;2024-03-23T16:25:26;0.93;;;0.75;;
6467;SDS011;3267;48.794;9.928;2024-03-23T16:27:52;2.95;;;0.75;;
6467;SDS011;3267;48.794;9.928;2024-03-23T16:30:18;2.40;;;1.17;;
6467;SDS011;3267;48.794;9.928;2024-03-23T16:32:45;1.65;;;1.08;;
6467;SDS011;3267;48.794;9.928;2024-03-23T16:35:12;1.30;;;1.15;;
6467;SDS011;3267;48.794;9.928;2024-03-23T16:37:39;4.40;;;1.73;;
6467;SDS011;3267;48.794;9.928;2024-03-23T16:40:04;1.05;;;0.90;;
6467;SDS011;3267;48.794;9.928;2024-03-23T16:42:31;1.23;;;1.00;;
6467;SDS011;3267;48.794;9.928;2024-03-23T16:44:57;1.90;;;1.00;;
6467;SDS011;3267;48.794;9.928;2024-03-23T16:47:23;3.38;;;1.10;;
6467;SDS011;3267;48.794;9.928;2024-03-23T16:49:52;1.92;;;1.50;;
6467;SDS011;3267;48.794;9.928;2024-03-23T16:52:18;2.63;;;2.00;;
6467;SDS011;3267;48.794;9.928;2024-03-23T16:54:44;0.90;;;0.88;;
6467;SDS011;3267;48.794;9.928;2024-03-23T16:57:14;2.05;;;1.13;;
6467;SDS011;3267;48.794;9.928;2024-03-23T16:59:40;1.85;;;0.80;;
6467;SDS011;3267;48.794;9.928;2024-03-23T17:02:07;1.40;;;1.23;;
6467;SDS011;3267;48.794;9.928;2024-03-23T17:04:33;1.25;;;0.98;;
6467;SDS011;3267;48.794;9.928;2024-03-23T17:07:00;1.00;;;0.93;;
6467;SDS011;3267;48.794;9.928;2024-03-23T17:09:26;0.90;;;0.90;;
6467;SDS011;3267;48.794;9.928;2024-03-23T17:11:53;1.48;;;0.90;;
6467;SDS011;3267;48.794;9.928;2024-03-23T17:14:18;1.08;;;0.98;;
6467;SDS011;3267;48.794;9.928;2024-03-23T17:16:44;4.53;;;1.10;;
6467;SDS011;3267;48.794;9.928;2024-03-23T17:19:10;1.98;;;0.90;;
6467;SDS011;3267;48.794;9.928;2024-03-23T17:21:36;0.90;;;0.90;;
6467;SDS011;3267;48.794;9.928;2024-03-23T17:24:05;0.95;;;0.80;;
6467;SDS011;3267;48.794;9.928;2024-03-23T17:26:34;0.90;;;0.75;;
6467;SDS011;3267;48.794;9.928;2024-03-23T17:29:00;0.80;;;0.80;;
6467;SDS011;3267;48.794;9.928;2024-03-23T17:31:25;0.88;;;0.60;;
6467;SDS011;3267;48.794;9.928;2024-03-23T17:33:51;0.80;;;0.68;;
6467;SDS011;3267;48.794;9.928;2024-03-23T17:36:28;0.98;;;0.98;;
6467;SDS011;3267;48.794;9.928;2024-03-23T17:38:58;1.55;;;1.05;;
6467;SDS011;3267;48.794;9.928;2024-03-23T17:41:23;1.27;;;0.82;;
6467;SDS011;3267;48.794;9.928;2024-03-23T17:43:53;1.50;;;0.90;;
6467;SDS011;3267;48.794;9.928;2024-03-23T17:46:20;1.02;;;0.90;;
6467;SDS011;3267;48.794;9.928;2024-03-23T17:48:46;1.85;;;0.65;;
6467;SDS011;3267;48.794;9.928;2024-03-23T17:51:12;0.80;;;0.63;;
6467;SDS011;3267;48.794;9.928;2024-03-23T17:53:39;0.75;;;0.75;;
6467;SDS011;3267;48.794;9.928;2024-03-23T17:56:05;1.20;;;0.80;;
6467;SDS011;3267;48.794;9.928;2024-03-23T17:58:32;0.73;;;0.73;;
6467;SDS011;3267;48.794;9.928;2024-03-23T18:01:04;1.13;;;0.90;;
6467;SDS011;3267;48.794;9.928;2024-03-23T18:03:30;1.27;;;0.90;;
6467;SDS011;3267;48.794;9.928;2024-03-23T18:05:56;0.65;;;0.65;;
6467;SDS011;3267;48.794;9.928;2024-03-23T18:08:21;0.68;;;0.68;;
6467;SDS011;3267;48.794;9.928;2024-03-23T18:10:47;3.40;;;1.00;;
6467;SDS011;3267;48.794;9.928;2024-03-23T18:13:15;1.08;;;0.80;;
6467;SDS011;3267;48.794;9.928;2024-03-23T18:15:41;2.50;;;0.82;;
6467;SDS011;3267;48.794;9.928;2024-03-23T18:18:07;1.13;;;1.00;;
6467;SDS011;3267;48.794;9.928;2024-03-23T18:20:33;2.25;;;0.77;;
6467;SDS011;3267;48.794;9.928;2024-03-23T18:22:58;1.63;;;0.93;;
6467;SDS011;3267;48.794;9.928;2024-03-23T18:25:25;0.82;;;0.80;;
6467;SDS011;3267;48.794;9.928;2024-03-23T18:27:51;0.90;;;0.90;;
6467;SDS011;3267;48.794;9.928;2024-03-23T18:30:18;1.48;;;1.00;;
6467;SDS011;3267;48.794;9.928;2024-03-23T18:32:43;1.20;;;1.10;;
6467;SDS011;3267;48.794;9.928;2024-03-23T18:35:10;1.27;;;0.90;;
6467;SDS011;3267;48.794;9.928;2024-03-23T18:37:35;3.55;;;1.13;;
6467;SDS011;3267;48.794;9.928;2024-03-23T18:40:01;1.63;;;1.13;;
6467;SDS011;3267;48.794;9.928;2024-03-23T18:42:27;0.95;;;0.90;;
6467;SDS011;3267;48.794;9.928;2024-03-23T18:44:52;0.70;;;0.70;;
6467;SDS011;3267;48.794;9.928;2024-03-23T18:47:18;0.50;;;0.50;;
6467;SDS011;3267;48.794;9.928;2024-03-23T18:49:44;1.17;;;0.60;;
6467;SDS011;3267;48.794;9.928;2024-03-23T18:52:09;0.55;;;0.55;;
6467;SDS011;3267;48.794;9.928;2024-03-23T18:54:35;0.70;;;0.70;;
6467;SDS011;3267;48.794;9.928;2024-03-23T18:57:01;0.60;;;0.60;;
6467;SDS011;3267;48.794;9.928;2024-03-23T18:59:27;0.60;;;0.60;;
6467;SDS011;3267;48.794;9.928;2024-03-23T19:01:52;0.43;;;0.43;;
6467;SDS011;3267;48.794;9.928;2024-03-23T19:04:18;0.40;;;0.40;;
6467;SDS011;3267;48.794;9.928;2024-03-23T19:06:45;0.45;;;0.45;;
6467;SDS011;3267;48.794;9.928;2024-03-23T19:09:11;1.80;;;0.50;;
6467;SDS011;3267;48.794;9.928;2024-03-23T19:11:37;0.40;;;0.40;;
6467;SDS011;3267;48.794;9.928;2024-03-23T19:14:02;0.60;;;0.60;;
6467;SDS011;3267;48.794;9.928;2024-03-23T19:16:28;0.55;;;0.55;;
6467;SDS011;3267;48.794;9.928;2024-03-23T19:18:55;0.65;;;0.50;;
6467;SDS011;3267;48.794;9.928;2024-03-23T19:21:21;0.50;;;0.50;;
6467;SDS011;3267;48.794;9.928;2024-03-23T19:23:47;0.47;;;0.47;;
6467;SDS011;3267;48.794;9.928;2024-03-23T19:26:12;1.40;;;0.50;;
6467;SDS011;3267;48.794;9.928;2024-03-23T19:28:38;0.60;;;0.60;;
6467;SDS011;3267;48.794;9.928;2024-03-23T19:31:04;0.60;;;0.60;;
6467;SDS011;3267;48.794;9.928;2024-03-23T19:33:33;0.60;;;0.60;;
6467;SDS011;3267;48.794;9.928;2024-03-23T19:35:59;0.75;;;0.60;;
6467;SDS011;3267;48.794;9.928;2024-03-23T19:38:24;0.57;;;0.57;;
6467;SDS011;3267;48.794;9.928;2024-03-23T19:40:54;0.60;;;0.60;;
6467;SDS011;3267;48.794;9.928;2024-03-23T19:43:21;0.60;;;0.60;;
6467;SDS011;3267;48.794;9.928;2024-03-23T19:45:47;0.70;;;0.70;;
6467;SDS011;3267;48.794;9.928;2024-03-23T19:48:13;0.70;;;0.60;;
6467;SDS011;3267;48.794;9.928;2024-03-23T19:50:39;0.60;;;0.60;;
6467;SDS011;3267;48.794;9.928;2024-03-23T19:53:06;0.70;;;0.70;;
6467;SDS011;3267;48.794;9.928;2024-03-23T19:55:33;0.68;;;0.63;;
6467;SDS011;3267;48.794;9.928;2024-03-23T19:57:59;0.50;;;0.50;;
6467;SDS011;3267;48.794;9.928;2024-03-23T20:00:25;0.90;;;0.90;;
6467;SDS011;3267;48.794;9.928;2024-03-23T20:02:51;0.73;;;0.73;;
6467;SDS011;3267;48.794;9.928;2024-03-23T20:05:16;2.67;;;1.25;;
6467;SDS011;3267;48.794;9.928;2024-03-23T20:07:42;1.58;;;1.10;;
6467;SDS011;3267;48.794;9.928;2024-03-23T20:10:08;5.78;;;3.60;;
6467;SDS011;3267;48.794;9.928;2024-03-23T20:12:35;3.10;;;1.00;;
6467;SDS011;3267;48.794;9.928;2024-03-23T20:15:01;1.33;;;0.85;;
6467;SDS011;3267;48.794;9.928;2024-03-23T20:17:27;1.70;;;0.70;;
6467;SDS011;3267;48.794;9.928;2024-03-23T20:19:53;1.20;;;0.90;;
6467;SDS011;3267;48.794;9.928;2024-03-23T20:22:19;0.95;;;0.73;;
6467;SDS011;3267;48.794;9.928;2024-03-23T20:24:44;0.70;;;0.70;;
6467;SDS011;3267;48.794;9.928;2024-03-23T20:27:10;0.93;;;0.93;;
6467;SDS011;3267;48.794;9.928;2024-03-23T20:29:36;2.35;;;1.33;;
6467;SDS011;3267;48.794;9.928;2024-03-23T20:32:02;4.13;;;2.83;;
6467;SDS011;3267;48.794;9.928;2024-03-23T20:34:28;1.58;;;1.15;;
6467;SDS011;3267;48.794;9.928;2024-03-23T20:36:57;0.95;;;0.95;;
6467;SDS011;3267;48.794;9.928;2024-03-23T20:39:23;1.52;;;0.90;;
6467;SDS011;3267;48.794;9.928;2024-03-23T20:41:49;2.67;;;1.33;;
6467;SDS011;3267;48.794;9.928;2024-03-23T20:44:14;1.92;;;1.10;;
6467;SDS011;3267;48.794;9.928;2024-03-23T20:46:40;0.77;;;0.75;;
6467;SDS011;3267;48.794;9.928;2024-03-23T20:49:06;0.70;;;0.70;;
6467;SDS011;3267;48.794;9.928;2024-03-23T20:51:32;4.05;;;3.13;;